sensor_id;sensor_type;location;lat;lon;timestamp;P1;durP1;ratioP1;P2;durP2;ratioP2
72649;SDS011;61467;50.674;4.618;2023-08-12T00:01:34;9.70;;;3.83;;
72649;SDS011;61467;50.674;4.618;2023-08-12T00:04:01;9.10;;;3.92;;
72649;SDS011;61467;50.674;4.618;2023-08-12T00:06:28;10.33;;;3.87;;
72649;SDS011;61467;50.674;4.618;2023-08-12T00:08:55;9.68;;;3.90;;
72649;SDS011;61467;50.674;4.618;2023-08-12T00:11:22;8.73;;;3.97;;
72649;SDS011;61467;50.674;4.618;2023-08-12T00:13:49;9.57;;;4.05;;
72649;SDS011;61467;50.674;4.618;2023-08-12T00:16:15;8.88;;;3.60;;
72649;SDS011;61467;50.674;4.618;2023-08-12T00:18:44;9.80;;;4.27;;
72649;SDS011;61467;50.674;4.618;2023-08-12T00:21:10;12.32;;;4.07;;
72649;SDS011;61467;50.674;4.618;2023-08-12T00:23:38;9.70;;;4.05;;
72649;SDS011;61467;50.674;4.618;2023-08-12T00:26:08;10.65;;;4.03;;
72649;SDS011;61467;50.674;4.618;2023-08-12T00:28:35;8.90;;;3.95;;
72649;SDS011;61467;50.674;4.618;2023-08-12T00:31:01;13.63;;;4.30;;
72649;SDS011;61467;50.674;4.618;2023-08-12T00:33:29;11.57;;;4.30;;
72649;SDS011;61467;50.674;4.618;2023-08-12T00:35:57;9.20;;;3.92;;
72649;SDS011;61467;50.674;4.618;2023-08-12T00:38:24;10.75;;;4.55;;
72649;SDS011;61467;50.674;4.618;2023-08-12T00:40:51;11.90;;;3.90;;
72649;SDS011;61467;50.674;4.618;2023-08-12T00:43:18;10.37;;;4.50;;
72649;SDS011;61467;50.674;4.618;2023-08-12T00:45:45;10.85;;;4.10;;
72649;SDS011;61467;50.674;4.618;2023-08-12T00:48:12;11.13;;;4.63;;
72649;SDS011;61467;50.674;4.618;2023-08-12T00:50:39;8.80;;;3.60;;
72649;SDS011;61467;50.674;4.618;2023-08-12T00:53:09;13.73;;;4.50;;
72649;SDS011;61467;50.674;4.618;2023-08-12T00:55:37;14.80;;;4.90;;
72649;SDS011;61467;50.674;4.618;2023-08-12T00:58:04;11.82;;;4.43;;
72649;SDS011;61467;50.674;4.618;2023-08-12T01:00:31;10.30;;;4.25;;
72649;SDS011;61467;50.674;4.618;2023-08-12T01:02:58;10.32;;;4.50;;
72649;SDS011;61467;50.674;4.618;2023-08-12T01:05:29;11.38;;;4.78;;
72649;SDS011;61467;50.674;4.618;2023-08-12T01:07:56;12.13;;;4.50;;
72649;SDS011;61467;50.674;4.618;2023-08-12T01:10:24;13.25;;;4.65;;
72649;SDS011;61467;50.674;4.618;2023-08-12T01:13:01;10.15;;;4.13;;
72649;SDS011;61467;50.674;4.618;2023-08-12T01:15:37;9.57;;;4.30;;
72649;SDS011;61467;50.674;4.618;2023-08-12T01:18:04;11.95;;;4.70;;
72649;SDS011;61467;50.674;4.618;2023-08-12T01:20:33;9.53;;;3.77;;
72649;SDS011;61467;50.674;4.618;2023-08-12T01:23:07;12.52;;;4.82;;
72649;SDS011;61467;50.674;4.618;2023-08-12T01:25:36;9.85;;;4.45;;
72649;SDS011;61467;50.674;4.618;2023-08-12T01:28:03;13.13;;;4.68;;
72649;SDS011;61467;50.674;4.618;2023-08-12T01:30:31;10.50;;;4.35;;
72649;SDS011;61467;50.674;4.618;2023-08-12T01:33:00;10.30;;;4.20;;
72649;SDS011;61467;50.674;4.618;2023-08-12T01:35:35;9.63;;;4.45;;
72649;SDS011;61467;50.674;4.618;2023-08-12T01:38:08;12.35;;;4.68;;
72649;SDS011;61467;50.674;4.618;2023-08-12T01:40:36;10.52;;;4.43;;
72649;SDS011;61467;50.674;4.618;2023-08-12T01:43:05;10.00;;;4.22;;
72649;SDS011;61467;50.674;4.618;2023-08-12T01:45:33;11.90;;;5.20;;
72649;SDS011;61467;50.674;4.618;2023-08-12T01:48:00;12.68;;;4.72;;
72649;SDS011;61467;50.674;4.618;2023-08-12T01:50:28;9.68;;;4.38;;
72649;SDS011;61467;50.674;4.618;2023-08-12T01:52:54;11.38;;;4.95;;
72649;SDS011;61467;50.674;4.618;2023-08-12T01:55:23;13.43;;;4.70;;
72649;SDS011;61467;50.674;4.618;2023-08-12T01:57:49;11.47;;;4.47;;
72649;SDS011;61467;50.674;4.618;2023-08-12T02:00:16;12.55;;;4.30;;
72649;SDS011;61467;50.674;4.618;2023-08-12T02:02:43;11.20;;;4.60;;
72649;SDS011;61467;50.674;4.618;2023-08-12T02:05:11;10.30;;;5.15;;
72649;SDS011;61467;50.674;4.618;2023-08-12T02:07:38;10.65;;;4.60;;
72649;SDS011;61467;50.674;4.618;2023-08-12T02:10:06;12.03;;;4.93;;
72649;SDS011;61467;50.674;4.618;2023-08-12T02:12:34;11.82;;;4.70;;
72649;SDS011;61467;50.674;4.618;2023-08-12T02:15:01;9.82;;;4.63;;
72649;SDS011;61467;50.674;4.618;2023-08-12T02:17:28;11.90;;;4.75;;
72649;SDS011;61467;50.674;4.618;2023-08-12T02:19:55;8.77;;;4.38;;
72649;SDS011;61467;50.674;4.618;2023-08-12T02:22:22;12.30;;;4.93;;
72649;SDS011;61467;50.674;4.618;2023-08-12T02:24:49;10.65;;;4.65;;
72649;SDS011;61467;50.674;4.618;2023-08-12T02:27:16;11.45;;;5.28;;
72649;SDS011;61467;50.674;4.618;2023-08-12T02:29:45;12.27;;;4.68;;
72649;SDS011;61467;50.674;4.618;2023-08-12T02:32:11;12.25;;;5.45;;
72649;SDS011;61467;50.674;4.618;2023-08-12T02:34:38;10.23;;;4.33;;
72649;SDS011;61467;50.674;4.618;2023-08-12T02:37:05;9.75;;;4.88;;
72649;SDS011;61467;50.674;4.618;2023-08-12T02:39:32;12.00;;;4.55;;
72649;SDS011;61467;50.674;4.618;2023-08-12T02:41:59;10.38;;;5.05;;
72649;SDS011;61467;50.674;4.618;2023-08-12T02:44:26;12.52;;;4.85;;
72649;SDS011;61467;50.674;4.618;2023-08-12T02:46:54;8.97;;;4.50;;
72649;SDS011;61467;50.674;4.618;2023-08-12T02:49:21;10.68;;;4.78;;
72649;SDS011;61467;50.674;4.618;2023-08-12T02:51:48;13.05;;;4.70;;
72649;SDS011;61467;50.674;4.618;2023-08-12T02:54:14;11.45;;;4.57;;
72649;SDS011;61467;50.674;4.618;2023-08-12T02:56:41;12.73;;;4.97;;
72649;SDS011;61467;50.674;4.618;2023-08-12T02:59:08;10.33;;;4.97;;
72649;SDS011;61467;50.674;4.618;2023-08-12T03:01:35;10.77;;;4.25;;
72649;SDS011;61467;50.674;4.618;2023-08-12T03:04:03;13.55;;;5.10;;
72649;SDS011;61467;50.674;4.618;2023-08-12T03:06:31;12.30;;;4.50;;
72649;SDS011;61467;50.674;4.618;2023-08-12T03:08:57;12.50;;;4.95;;
72649;SDS011;61467;50.674;4.618;2023-08-12T03:11:24;11.83;;;5.27;;
72649;SDS011;61467;50.674;4.618;2023-08-12T03:13:51;13.48;;;4.97;;
72649;SDS011;61467;50.674;4.618;2023-08-12T03:16:18;12.02;;;5.25;;
72649;SDS011;61467;50.674;4.618;2023-08-12T03:18:45;11.82;;;5.20;;
72649;SDS011;61467;50.674;4.618;2023-08-12T03:21:13;11.25;;;5.35;;
72649;SDS011;61467;50.674;4.618;2023-08-12T03:23:40;12.47;;;6.30;;
72649;SDS011;61467;50.674;4.618;2023-08-12T03:26:07;10.57;;;5.50;;
72649;SDS011;61467;50.674;4.618;2023-08-12T03:28:34;14.80;;;5.30;;
72649;SDS011;61467;50.674;4.618;2023-08-12T03:31:01;13.88;;;6.05;;
72649;SDS011;61467;50.674;4.618;2023-08-12T03:33:28;13.10;;;5.03;;
72649;SDS011;61467;50.674;4.618;2023-08-12T03:35:55;11.33;;;4.87;;
72649;SDS011;61467;50.674;4.618;2023-08-12T03:38:23;11.20;;;5.15;;
72649;SDS011;61467;50.674;4.618;2023-08-12T03:40:50;10.32;;;4.95;;
72649;SDS011;61467;50.674;4.618;2023-08-12T03:43:17;10.07;;;5.22;;
72649;SDS011;61467;50.674;4.618;2023-08-12T03:45:44;11.65;;;5.40;;
72649;SDS011;61467;50.674;4.618;2023-08-12T03:48:12;13.10;;;5.77;;
72649;SDS011;61467;50.674;4.618;2023-08-12T03:50:40;13.18;;;5.60;;
72649;SDS011;61467;50.674;4.618;2023-08-12T03:53:08;14.68;;;6.32;;
72649;SDS011;61467;50.674;4.618;2023-08-12T03:55:36;10.48;;;5.53;;
72649;SDS011;61467;50.674;4.618;2023-08-12T03:58:03;11.60;;;5.88;;
72649;SDS011;61467;50.674;4.618;2023-08-12T04:00:30;9.40;;;5.90;;
72649;SDS011;61467;50.674;4.618;2023-08-12T04:02:57;12.25;;;6.32;;
72649;SDS011;61467;50.674;4.618;2023-08-12T04:05:24;13.20;;;6.40;;
72649;SDS011;61467;50.674;4.618;2023-08-12T04:07:51;12.93;;;6.25;;
72649;SDS011;61467;50.674;4.618;2023-08-12T04:10:18;16.13;;;6.85;;
72649;SDS011;61467;50.674;4.618;2023-08-12T04:12:46;10.60;;;6.67;;
72649;SDS011;61467;50.674;4.618;2023-08-12T04:15:13;13.82;;;6.25;;
72649;SDS011;61467;50.674;4.618;2023-08-12T04:17:39;12.23;;;6.75;;
72649;SDS011;61467;50.674;4.618;2023-08-12T04:20:07;13.68;;;6.38;;
72649;SDS011;61467;50.674;4.618;2023-08-12T04:22:34;14.60;;;6.22;;
72649;SDS011;61467;50.674;4.618;2023-08-12T04:25:01;13.10;;;6.27;;
72649;SDS011;61467;50.674;4.618;2023-08-12T04:27:28;13.70;;;6.70;;
72649;SDS011;61467;50.674;4.618;2023-08-12T04:29:57;13.57;;;7.05;;
72649;SDS011;61467;50.674;4.618;2023-08-12T04:32:23;12.30;;;5.90;;
72649;SDS011;61467;50.674;4.618;2023-08-12T04:34:50;13.10;;;6.30;;
72649;SDS011;61467;50.674;4.618;2023-08-12T04:37:17;12.27;;;6.40;;
72649;SDS011;61467;50.674;4.618;2023-08-12T04:39:44;12.30;;;6.72;;
72649;SDS011;61467;50.674;4.618;2023-08-12T04:42:12;13.85;;;6.72;;
72649;SDS011;61467;50.674;4.618;2023-08-12T04:44:39;13.10;;;7.20;;
72649;SDS011;61467;50.674;4.618;2023-08-12T04:47:08;12.75;;;6.18;;
72649;SDS011;61467;50.674;4.618;2023-08-12T04:49:35;13.93;;;5.97;;
72649;SDS011;61467;50.674;4.618;2023-08-12T04:52:02;10.32;;;5.63;;
72649;SDS011;61467;50.674;4.618;2023-08-12T04:54:29;9.55;;;5.22;;
72649;SDS011;61467;50.674;4.618;2023-08-12T04:56:56;10.15;;;4.90;;
72649;SDS011;61467;50.674;4.618;2023-08-12T04:59:24;9.82;;;4.80;;
72649;SDS011;61467;50.674;4.618;2023-08-12T05:01:51;9.23;;;4.40;;
72649;SDS011;61467;50.674;4.618;2023-08-12T05:04:19;8.05;;;4.53;;
72649;SDS011;61467;50.674;4.618;2023-08-12T05:06:46;7.32;;;3.85;;
72649;SDS011;61467;50.674;4.618;2023-08-12T05:09:13;9.25;;;4.15;;
72649;SDS011;61467;50.674;4.618;2023-08-12T05:11:40;7.90;;;4.05;;
72649;SDS011;61467;50.674;4.618;2023-08-12T05:14:07;7.63;;;3.67;;
72649;SDS011;61467;50.674;4.618;2023-08-12T05:16:34;8.13;;;3.78;;
72649;SDS011;61467;50.674;4.618;2023-08-12T05:19:01;8.55;;;3.70;;
72649;SDS011;61467;50.674;4.618;2023-08-12T05:21:29;8.00;;;3.50;;
72649;SDS011;61467;50.674;4.618;2023-08-12T05:23:56;9.23;;;3.95;;
72649;SDS011;61467;50.674;4.618;2023-08-12T05:26:23;6.80;;;3.50;;
72649;SDS011;61467;50.674;4.618;2023-08-12T05:28:50;6.65;;;3.03;;
72649;SDS011;61467;50.674;4.618;2023-08-12T05:31:17;7.28;;;3.13;;
72649;SDS011;61467;50.674;4.618;2023-08-12T05:33:43;7.55;;;3.00;;
72649;SDS011;61467;50.674;4.618;2023-08-12T05:36:10;6.55;;;3.03;;
72649;SDS011;61467;50.674;4.618;2023-08-12T05:38:38;6.47;;;2.90;;
72649;SDS011;61467;50.674;4.618;2023-08-12T05:41:05;6.68;;;2.45;;
72649;SDS011;61467;50.674;4.618;2023-08-12T05:43:33;6.45;;;2.30;;
72649;SDS011;61467;50.674;4.618;2023-08-12T05:46:00;5.55;;;1.95;;
72649;SDS011;61467;50.674;4.618;2023-08-12T05:48:28;7.20;;;2.20;;
72649;SDS011;61467;50.674;4.618;2023-08-12T05:50:54;5.20;;;1.90;;
72649;SDS011;61467;50.674;4.618;2023-08-12T05:53:21;4.82;;;1.80;;
72649;SDS011;61467;50.674;4.618;2023-08-12T05:55:50;5.07;;;1.85;;
72649;SDS011;61467;50.674;4.618;2023-08-12T05:58:17;6.22;;;1.83;;
72649;SDS011;61467;50.674;4.618;2023-08-12T06:00:43;6.93;;;1.70;;
72649;SDS011;61467;50.674;4.618;2023-08-12T06:03:11;5.60;;;1.80;;
72649;SDS011;61467;50.674;4.618;2023-08-12T06:05:38;5.88;;;1.70;;
72649;SDS011;61467;50.674;4.618;2023-08-12T06:08:05;5.18;;;1.70;;
72649;SDS011;61467;50.674;4.618;2023-08-12T06:10:33;4.95;;;1.55;;
72649;SDS011;61467;50.674;4.618;2023-08-12T06:13:01;5.63;;;1.63;;
72649;SDS011;61467;50.674;4.618;2023-08-12T06:15:28;4.33;;;1.57;;
72649;SDS011;61467;50.674;4.618;2023-08-12T06:17:55;4.78;;;1.30;;
72649;SDS011;61467;50.674;4.618;2023-08-12T06:20:22;5.47;;;1.40;;
72649;SDS011;61467;50.674;4.618;2023-08-12T06:22:51;4.20;;;1.10;;
72649;SDS011;61467;50.674;4.618;2023-08-12T06:25:18;3.45;;;0.90;;
72649;SDS011;61467;50.674;4.618;2023-08-12T06:27:45;3.33;;;1.00;;
72649;SDS011;61467;50.674;4.618;2023-08-12T06:30:14;4.35;;;0.80;;
72649;SDS011;61467;50.674;4.618;2023-08-12T06:32:41;3.80;;;0.85;;
72649;SDS011;61467;50.674;4.618;2023-08-12T06:35:08;3.20;;;0.80;;
72649;SDS011;61467;50.674;4.618;2023-08-12T06:37:35;3.25;;;0.70;;
72649;SDS011;61467;50.674;4.618;2023-08-12T06:40:02;4.90;;;0.70;;
72649;SDS011;61467;50.674;4.618;2023-08-12T06:42:30;2.10;;;0.60;;
72649;SDS011;61467;50.674;4.618;2023-08-12T06:44:57;2.92;;;0.60;;
72649;SDS011;61467;50.674;4.618;2023-08-12T06:47:26;2.42;;;0.50;;
72649;SDS011;61467;50.674;4.618;2023-08-12T06:49:54;2.40;;;0.45;;
72649;SDS011;61467;50.674;4.618;2023-08-12T06:52:22;4.10;;;0.70;;
72649;SDS011;61467;50.674;4.618;2023-08-12T06:54:49;3.17;;;0.70;;
72649;SDS011;61467;50.674;4.618;2023-08-12T06:57:15;2.35;;;0.50;;
72649;SDS011;61467;50.674;4.618;2023-08-12T06:59:42;3.38;;;0.70;;
72649;SDS011;61467;50.674;4.618;2023-08-12T07:02:09;2.13;;;0.65;;
72649;SDS011;61467;50.674;4.618;2023-08-12T07:04:37;3.27;;;0.60;;
72649;SDS011;61467;50.674;4.618;2023-08-12T07:07:04;2.22;;;0.47;;
72649;SDS011;61467;50.674;4.618;2023-08-12T07:09:31;1.63;;;0.40;;
72649;SDS011;61467;50.674;4.618;2023-08-12T07:11:58;2.35;;;0.40;;
72649;SDS011;61467;50.674;4.618;2023-08-12T07:14:25;1.98;;;0.52;;
72649;SDS011;61467;50.674;4.618;2023-08-12T07:16:53;2.60;;;0.40;;
72649;SDS011;61467;50.674;4.618;2023-08-12T07:19:20;1.52;;;0.45;;
72649;SDS011;61467;50.674;4.618;2023-08-12T07:21:48;1.65;;;0.40;;
72649;SDS011;61467;50.674;4.618;2023-08-12T07:24:15;1.00;;;0.30;;
72649;SDS011;61467;50.674;4.618;2023-08-12T07:26:42;3.50;;;0.40;;
72649;SDS011;61467;50.674;4.618;2023-08-12T07:29:09;1.73;;;0.40;;
72649;SDS011;61467;50.674;4.618;2023-08-12T07:31:36;2.45;;;0.40;;
72649;SDS011;61467;50.674;4.618;2023-08-12T07:34:02;1.35;;;0.40;;
72649;SDS011;61467;50.674;4.618;2023-08-12T07:36:29;3.05;;;0.60;;
72649;SDS011;61467;50.674;4.618;2023-08-12T07:38:58;1.92;;;0.40;;
72649;SDS011;61467;50.674;4.618;2023-08-12T07:41:25;1.40;;;0.30;;
72649;SDS011;61467;50.674;4.618;2023-08-12T07:43:53;1.63;;;0.40;;
72649;SDS011;61467;50.674;4.618;2023-08-12T07:46:21;1.60;;;0.43;;
72649;SDS011;61467;50.674;4.618;2023-08-12T07:48:48;1.85;;;0.38;;
72649;SDS011;61467;50.674;4.618;2023-08-12T07:51:16;2.72;;;0.40;;
72649;SDS011;61467;50.674;4.618;2023-08-12T07:53:43;2.20;;;0.40;;
72649;SDS011;61467;50.674;4.618;2023-08-12T07:56:11;1.65;;;0.50;;
72649;SDS011;61467;50.674;4.618;2023-08-12T07:58:38;1.98;;;0.40;;
72649;SDS011;61467;50.674;4.618;2023-08-12T08:01:05;4.57;;;0.60;;
72649;SDS011;61467;50.674;4.618;2023-08-12T08:03:34;4.07;;;0.60;;
72649;SDS011;61467;50.674;4.618;2023-08-12T08:06:00;2.60;;;0.50;;
72649;SDS011;61467;50.674;4.618;2023-08-12T08:08:27;2.67;;;0.70;;
72649;SDS011;61467;50.674;4.618;2023-08-12T08:10:54;2.90;;;0.60;;
72649;SDS011;61467;50.674;4.618;2023-08-12T08:13:22;3.90;;;0.75;;
72649;SDS011;61467;50.674;4.618;2023-08-12T08:15:49;2.85;;;0.52;;
72649;SDS011;61467;50.674;4.618;2023-08-12T08:18:17;3.23;;;0.80;;
72649;SDS011;61467;50.674;4.618;2023-08-12T08:20:44;3.38;;;0.70;;
72649;SDS011;61467;50.674;4.618;2023-08-12T08:23:10;3.10;;;0.50;;
72649;SDS011;61467;50.674;4.618;2023-08-12T08:25:37;2.75;;;0.70;;
72649;SDS011;61467;50.674;4.618;2023-08-12T08:28:04;3.40;;;0.70;;
72649;SDS011;61467;50.674;4.618;2023-08-12T08:30:32;3.80;;;0.97;;
72649;SDS011;61467;50.674;4.618;2023-08-12T08:32:59;4.10;;;0.90;;
72649;SDS011;61467;50.674;4.618;2023-08-12T08:35:26;4.55;;;0.80;;
72649;SDS011;61467;50.674;4.618;2023-08-12T08:37:53;3.88;;;0.70;;
72649;SDS011;61467;50.674;4.618;2023-08-12T08:40:20;3.53;;;0.52;;
72649;SDS011;61467;50.674;4.618;2023-08-12T08:42:47;4.30;;;0.80;;
72649;SDS011;61467;50.674;4.618;2023-08-12T08:45:18;3.92;;;0.40;;
72649;SDS011;61467;50.674;4.618;2023-08-12T08:47:48;2.45;;;0.50;;
72649;SDS011;61467;50.674;4.618;2023-08-12T08:50:17;2.08;;;0.52;;
72649;SDS011;61467;50.674;4.618;2023-08-12T08:52:44;2.33;;;0.60;;
72649;SDS011;61467;50.674;4.618;2023-08-12T08:55:12;2.13;;;0.50;;
72649;SDS011;61467;50.674;4.618;2023-08-12T08:57:40;1.75;;;0.52;;
72649;SDS011;61467;50.674;4.618;2023-08-12T09:00:09;2.10;;;0.47;;
72649;SDS011;61467;50.674;4.618;2023-08-12T09:02:37;2.88;;;0.60;;
72649;SDS011;61467;50.674;4.618;2023-08-12T09:05:07;2.08;;;0.60;;
72649;SDS011;61467;50.674;4.618;2023-08-12T09:07:34;3.20;;;0.60;;
72649;SDS011;61467;50.674;4.618;2023-08-12T09:10:02;2.42;;;0.40;;
72649;SDS011;61467;50.674;4.618;2023-08-12T09:12:30;2.45;;;0.40;;
72649;SDS011;61467;50.674;4.618;2023-08-12T09:14:57;3.20;;;0.57;;
72649;SDS011;61467;50.674;4.618;2023-08-12T09:17:25;1.77;;;0.40;;
72649;SDS011;61467;50.674;4.618;2023-08-12T09:19:53;1.93;;;0.63;;
72649;SDS011;61467;50.674;4.618;2023-08-12T09:22:21;2.50;;;0.50;;
72649;SDS011;61467;50.674;4.618;2023-08-12T09:24:50;3.42;;;0.80;;
72649;SDS011;61467;50.674;4.618;2023-08-12T09:27:22;2.33;;;0.60;;
72649;SDS011;61467;50.674;4.618;2023-08-12T09:29:49;2.05;;;0.60;;
72649;SDS011;61467;50.674;4.618;2023-08-12T09:32:21;3.30;;;0.50;;
72649;SDS011;61467;50.674;4.618;2023-08-12T09:34:49;3.80;;;0.90;;
72649;SDS011;61467;50.674;4.618;2023-08-12T09:37:17;2.95;;;0.60;;
72649;SDS011;61467;50.674;4.618;2023-08-12T09:39:46;4.45;;;0.70;;
72649;SDS011;61467;50.674;4.618;2023-08-12T09:42:14;3.17;;;0.88;;
72649;SDS011;61467;50.674;4.618;2023-08-12T09:44:42;5.40;;;0.90;;
72649;SDS011;61467;50.674;4.618;2023-08-12T09:47:09;2.65;;;0.95;;
72649;SDS011;61467;50.674;4.618;2023-08-12T09:49:38;3.35;;;1.00;;
72649;SDS011;61467;50.674;4.618;2023-08-12T09:52:06;3.70;;;1.00;;
72649;SDS011;61467;50.674;4.618;2023-08-12T09:54:34;3.65;;;1.00;;
72649;SDS011;61467;50.674;4.618;2023-08-12T09:57:04;4.03;;;1.07;;
72649;SDS011;61467;50.674;4.618;2023-08-12T09:59:34;3.55;;;0.77;;
72649;SDS011;61467;50.674;4.618;2023-08-12T10:02:02;4.93;;;1.10;;
72649;SDS011;61467;50.674;4.618;2023-08-12T10:04:33;4.32;;;1.10;;
72649;SDS011;61467;50.674;4.618;2023-08-12T10:07:03;4.70;;;1.20;;
72649;SDS011;61467;50.674;4.618;2023-08-12T10:09:31;3.47;;;0.93;;
72649;SDS011;61467;50.674;4.618;2023-08-12T10:11:59;3.83;;;0.80;;
72649;SDS011;61467;50.674;4.618;2023-08-12T10:14:27;3.58;;;0.90;;
72649;SDS011;61467;50.674;4.618;2023-08-12T10:16:55;5.13;;;1.40;;
72649;SDS011;61467;50.674;4.618;2023-08-12T10:19:24;5.18;;;1.70;;
72649;SDS011;61467;50.674;4.618;2023-08-12T10:21:53;5.83;;;1.50;;
72649;SDS011;61467;50.674;4.618;2023-08-12T10:24:22;6.53;;;1.98;;
72649;SDS011;61467;50.674;4.618;2023-08-12T10:26:50;6.90;;;2.00;;
72649;SDS011;61467;50.674;4.618;2023-08-12T10:29:18;5.88;;;1.80;;
72649;SDS011;61467;50.674;4.618;2023-08-12T10:31:47;6.40;;;1.70;;
72649;SDS011;61467;50.674;4.618;2023-08-12T10:34:18;5.50;;;1.37;;
72649;SDS011;61467;50.674;4.618;2023-08-12T10:36:46;5.40;;;1.63;;
72649;SDS011;61467;50.674;4.618;2023-08-12T10:39:13;5.70;;;1.73;;
72649;SDS011;61467;50.674;4.618;2023-08-12T10:41:43;5.55;;;1.50;;
72649;SDS011;61467;50.674;4.618;2023-08-12T10:44:17;5.75;;;2.03;;
72649;SDS011;61467;50.674;4.618;2023-08-12T10:46:52;5.77;;;1.80;;
72649;SDS011;61467;50.674;4.618;2023-08-12T10:49:20;6.63;;;1.88;;
72649;SDS011;61467;50.674;4.618;2023-08-12T10:51:48;6.28;;;1.88;;
72649;SDS011;61467;50.674;4.618;2023-08-12T10:54:16;7.05;;;1.92;;
72649;SDS011;61467;50.674;4.618;2023-08-12T10:59:48;7.43;;;2.70;;
72649;SDS011;61467;50.674;4.618;2023-08-12T11:02:21;7.28;;;2.03;;
72649;SDS011;61467;50.674;4.618;2023-08-12T11:04:52;7.13;;;2.60;;
72649;SDS011;61467;50.674;4.618;2023-08-12T11:07:21;6.75;;;2.53;;
72649;SDS011;61467;50.674;4.618;2023-08-12T11:09:53;7.07;;;2.53;;
72649;SDS011;61467;50.674;4.618;2023-08-12T11:12:29;7.40;;;2.60;;
72649;SDS011;61467;50.674;4.618;2023-08-12T11:14:57;7.25;;;2.42;;
72649;SDS011;61467;50.674;4.618;2023-08-12T11:17:33;7.63;;;2.83;;
72649;SDS011;61467;50.674;4.618;2023-08-12T11:20:02;7.03;;;2.60;;
72649;SDS011;61467;50.674;4.618;2023-08-12T11:22:30;6.63;;;2.50;;
72649;SDS011;61467;50.674;4.618;2023-08-12T11:24:58;7.27;;;2.70;;
72649;SDS011;61467;50.674;4.618;2023-08-12T11:27:28;8.63;;;2.90;;
72649;SDS011;61467;50.674;4.618;2023-08-12T11:29:55;8.05;;;2.90;;
72649;SDS011;61467;50.674;4.618;2023-08-12T11:32:21;7.63;;;3.40;;
72649;SDS011;61467;50.674;4.618;2023-08-12T11:34:50;7.00;;;3.25;;
72649;SDS011;61467;50.674;4.618;2023-08-12T11:37:16;7.30;;;3.50;;
72649;SDS011;61467;50.674;4.618;2023-08-12T11:39:44;8.82;;;3.30;;
72649;SDS011;61467;50.674;4.618;2023-08-12T11:42:10;7.85;;;3.10;;
72649;SDS011;61467;50.674;4.618;2023-08-12T11:44:39;7.30;;;2.63;;
72649;SDS011;61467;50.674;4.618;2023-08-12T11:47:06;8.15;;;2.50;;
72649;SDS011;61467;50.674;4.618;2023-08-12T11:49:33;6.67;;;2.10;;
72649;SDS011;61467;50.674;4.618;2023-08-12T11:52:01;6.10;;;2.05;;
72649;SDS011;61467;50.674;4.618;2023-08-12T11:54:28;5.60;;;1.70;;
72649;SDS011;61467;50.674;4.618;2023-08-12T11:56:56;6.32;;;1.73;;
72649;SDS011;61467;50.674;4.618;2023-08-12T11:59:23;5.28;;;1.65;;
72649;SDS011;61467;50.674;4.618;2023-08-12T12:01:51;5.07;;;1.53;;
72649;SDS011;61467;50.674;4.618;2023-08-12T12:04:20;5.50;;;1.20;;
72649;SDS011;61467;50.674;4.618;2023-08-12T12:06:47;4.60;;;1.20;;
72649;SDS011;61467;50.674;4.618;2023-08-12T12:09:16;6.15;;;1.40;;
72649;SDS011;61467;50.674;4.618;2023-08-12T12:11:45;4.93;;;1.27;;
72649;SDS011;61467;50.674;4.618;2023-08-12T12:14:12;6.40;;;1.10;;
72649;SDS011;61467;50.674;4.618;2023-08-12T12:16:39;4.22;;;1.10;;
72649;SDS011;61467;50.674;4.618;2023-08-12T12:19:12;8.20;;;1.40;;
72649;SDS011;61467;50.674;4.618;2023-08-12T12:21:41;3.95;;;1.10;;
72649;SDS011;61467;50.674;4.618;2023-08-12T12:24:08;4.13;;;1.17;;
72649;SDS011;61467;50.674;4.618;2023-08-12T12:26:37;4.77;;;1.10;;
72649;SDS011;61467;50.674;4.618;2023-08-12T12:29:04;6.32;;;1.13;;
72649;SDS011;61467;50.674;4.618;2023-08-12T12:31:32;3.97;;;1.00;;
72649;SDS011;61467;50.674;4.618;2023-08-12T12:34:00;4.35;;;1.13;;
72649;SDS011;61467;50.674;4.618;2023-08-12T12:36:27;5.85;;;0.88;;
72649;SDS011;61467;50.674;4.618;2023-08-12T12:38:53;5.47;;;0.90;;
72649;SDS011;61467;50.674;4.618;2023-08-12T12:41:20;5.53;;;1.17;;
72649;SDS011;61467;50.674;4.618;2023-08-12T12:43:48;3.88;;;0.75;;
72649;SDS011;61467;50.674;4.618;2023-08-12T12:46:15;4.55;;;1.05;;
72649;SDS011;61467;50.674;4.618;2023-08-12T12:48:42;4.85;;;1.30;;
72649;SDS011;61467;50.674;4.618;2023-08-12T12:51:10;4.57;;;1.10;;
72649;SDS011;61467;50.674;4.618;2023-08-12T12:53:37;4.90;;;1.17;;
72649;SDS011;61467;50.674;4.618;2023-08-12T12:56:04;5.07;;;1.30;;
72649;SDS011;61467;50.674;4.618;2023-08-12T12:58:31;5.90;;;1.50;;
72649;SDS011;61467;50.674;4.618;2023-08-12T13:01:00;5.70;;;1.20;;
72649;SDS011;61467;50.674;4.618;2023-08-12T13:03:29;5.43;;;1.13;;
72649;SDS011;61467;50.674;4.618;2023-08-12T13:05:56;5.15;;;1.48;;
72649;SDS011;61467;50.674;4.618;2023-08-12T13:08:24;6.50;;;1.17;;
72649;SDS011;61467;50.674;4.618;2023-08-12T13:10:51;6.43;;;1.48;;
72649;SDS011;61467;50.674;4.618;2023-08-12T13:13:18;4.47;;;1.38;;
72649;SDS011;61467;50.674;4.618;2023-08-12T13:15:45;4.10;;;1.30;;
72649;SDS011;61467;50.674;4.618;2023-08-12T13:18:14;7.70;;;1.65;;
72649;SDS011;61467;50.674;4.618;2023-08-12T13:20:41;6.32;;;1.55;;
72649;SDS011;61467;50.674;4.618;2023-08-12T13:23:08;4.90;;;1.45;;
72649;SDS011;61467;50.674;4.618;2023-08-12T13:25:35;6.75;;;1.95;;
72649;SDS011;61467;50.674;4.618;2023-08-12T13:28:02;5.07;;;1.50;;
72649;SDS011;61467;50.674;4.618;2023-08-12T13:30:30;4.82;;;1.33;;
72649;SDS011;61467;50.674;4.618;2023-08-12T13:32:57;7.20;;;1.60;;
72649;SDS011;61467;50.674;4.618;2023-08-12T13:35:25;8.75;;;1.85;;
72649;SDS011;61467;50.674;4.618;2023-08-12T13:37:52;5.32;;;1.48;;
72649;SDS011;61467;50.674;4.618;2023-08-12T13:40:19;6.33;;;1.50;;
72649;SDS011;61467;50.674;4.618;2023-08-12T13:42:46;6.53;;;1.80;;
72649;SDS011;61467;50.674;4.618;2023-08-12T13:45:13;7.85;;;1.90;;
72649;SDS011;61467;50.674;4.618;2023-08-12T13:47:40;5.78;;;1.40;;
72649;SDS011;61467;50.674;4.618;2023-08-12T13:50:07;7.88;;;1.38;;
72649;SDS011;61467;50.674;4.618;2023-08-12T13:52:36;6.13;;;1.47;;
72649;SDS011;61467;50.674;4.618;2023-08-12T13:55:03;7.03;;;1.50;;
72649;SDS011;61467;50.674;4.618;2023-08-12T13:57:30;5.15;;;0.75;;
72649;SDS011;61467;50.674;4.618;2023-08-12T13:59:57;8.90;;;1.70;;
72649;SDS011;61467;50.674;4.618;2023-08-12T14:02:24;8.93;;;1.42;;
72649;SDS011;61467;50.674;4.618;2023-08-12T14:04:51;4.97;;;0.90;;
72649;SDS011;61467;50.674;4.618;2023-08-12T14:07:18;6.68;;;1.00;;
72649;SDS011;61467;50.674;4.618;2023-08-12T14:09:47;5.70;;;1.10;;
72649;SDS011;61467;50.674;4.618;2023-08-12T14:12:14;6.30;;;1.40;;
72649;SDS011;61467;50.674;4.618;2023-08-12T14:14:41;6.18;;;1.17;;
72649;SDS011;61467;50.674;4.618;2023-08-12T14:17:08;6.07;;;1.33;;
72649;SDS011;61467;50.674;4.618;2023-08-12T14:19:38;4.97;;;1.10;;
72649;SDS011;61467;50.674;4.618;2023-08-12T14:22:06;7.32;;;1.40;;
72649;SDS011;61467;50.674;4.618;2023-08-12T14:24:33;4.13;;;0.90;;
72649;SDS011;61467;50.674;4.618;2023-08-12T14:27:01;7.05;;;1.23;;
72649;SDS011;61467;50.674;4.618;2023-08-12T14:29:29;6.27;;;1.43;;
72649;SDS011;61467;50.674;4.618;2023-08-12T14:31:56;4.93;;;0.80;;
72649;SDS011;61467;50.674;4.618;2023-08-12T14:34:23;4.15;;;0.80;;
72649;SDS011;61467;50.674;4.618;2023-08-12T14:36:50;5.10;;;0.95;;
72649;SDS011;61467;50.674;4.618;2023-08-12T14:39:17;5.03;;;0.90;;
72649;SDS011;61467;50.674;4.618;2023-08-12T14:41:44;8.27;;;1.40;;
72649;SDS011;61467;50.674;4.618;2023-08-12T14:44:12;3.90;;;0.93;;
72649;SDS011;61467;50.674;4.618;2023-08-12T14:46:40;5.30;;;1.20;;
72649;SDS011;61467;50.674;4.618;2023-08-12T14:49:06;5.35;;;1.17;;